Aeroporto :
LOGIN :

Iscrizione | Disclaimer

   EN    FR    IT 

 










Sommario :    VFR   VFR Marginale   IFR   IFR Intensivo   IFR Molto Intensivo
Visibilità : 
Base nubi : 
>= 8 km
>= 3000ft
5 / 8 km
1000 / 3000 ft
1500m / 5 km
500 / 1000 ft
800 / 1500m
200 / 500 ft
< 800m
< 200 ft
Simboli :   Temporali  Nebbia  Neve Forte  Precipitazioni Forti  Vento > 20 kt
SIGMETs :   Varie  Temporali  Ghiacco  Turbolenza  Onda orograficha  Ceneri Vulcaniche






- Altitudine del aeroporto : 479 ft
- Codice IATA : KEV


EFHA - Halli

ULTIMO METAR :
  • 270820Z 20010KT 150V240 CAVOK 19/05 Q1022

METARs OBSOLETI :
  • 270750Z 21013KT CAVOK 18/05 Q1022
  • 270720Z 20012KT 160V230 CAVOK 18/05 Q1023
  • 270650Z 21011KT CAVOK 18/04 Q1023
  • 270620Z 21007KT 170V240 CAVOK 17/03 Q1023
  • 270550Z 18007KT 130V260 CAVOK 17/03 Q1023

TAF TAF EFHA
Valido dal 27 a 06 ore il 27 a 13 ore UTC


270524Z 2706/2713 18006KT CAVOK
TEMPO 2711/2713 FEW050CB



MetMap, La meteo Aeronautica in un colpo d'occhio ! - Copyright ORBIFLY Dicembre 2007 - Disclaimer

ORBIFLY MET'MAP TEAM :

Programmazione e sviluppo : Alexandra Zaïnal
Concezione : Baudouin d'Aumeries
Aiuto per la programmazione : Marc-Olivier Méhu
Supporto tecnico e logistico : Manuel Goepfert
Aiuto per la traduzione : Arnaldo La Scala

Contatto : metmap@orbifly.com




FONTI E CREDITI :

   NOAA